Pagrindinis puslapis
METAR-TAF:

METAR-TAF

Oro uostai :

Lake Charles, Luiziana, Jungtinės Amerikos Valstijos

platuma: 30-13N, ilguma: 093-09W, Aukštis: 4 m

Dabartinis oras

Ataskaita buvo paskelbta 35 minutes, ne 11:00 UTC
Ramus vėjas
Temperatūra 19°C
Drėgmė 100%
Slėgis 1016 hPa
Matomumas: 16.1 km
Giedras dangus

METAR: KCWF 291100Z 00000KT 10SM SKC 19/19 A3000

Laikas: 06:35 (11:35 UTC)


TAF: trūkstamas

Orai ataskaitas ir orų prognozės (METAR, TAF).

turimą stotys yra geltonos ir raudonos taškus žemėlapyje.

Perkelti pele per norėdami pamatyti stoties vardą.

Tada spustelėkite, norėdami matyti oro stebėjimo ir prognozės.

Norėdami pakeisti žemėlapį: spustelėkite ant žalios mygtukų su juodo kryžiaus žemyn,; žalią mygtuką su brūkšneliu, jei norite nutolinti; arba žalių rodyklių gretimoms žemėlapius.


METAR-TAF: